EW7935 Weather Reports


Display with metric or nautical units.
time (UTC)temp
F
wind
direction
speed
MPH
gust
MPH
rain 1hr
in
rain 24hr
in
rain mn
in
humidity
%
barometer
mb
20190323041622 42 148 0.0 0.0 0.00 0.00 0.00 63 1017.7
20190323040114 43 315 0.0 0.0 0.00 0.00 0.00 62 1017.6
20190323034633 43 161 0.0 5.0 0.00 0.02 0.00 60 1017.1
20190323031622 44 302 0.0 1.0 0.00 0.02 0.00 59 1016.8
20190323030102 45 314 0.0 1.0 0.00 0.02 0.00 57 1016.8
20190323024602 45 198 0.0 5.0 0.00 0.06 0.00 56 1016.6
20190323023137 46 333 0.0 3.0 0.00 0.06 0.00 54 1016.3
20190323021551 46 263 0.0 5.0 0.00 0.06 0.00 52 1016.1
20190323020047 47 286 0.0 4.0 0.00 0.06 0.00 50 1015.9
20190323014557 47 315 0.0 1.0 0.00 0.07 0.00 49 1015.5
20190323013107 47 331 0.0 1.0 0.00 0.07 0.00 47 1015.2
20190323011617 48 333 0.0 4.0 0.00 0.07 0.00 44 1015.0
20190323010057 48 314 0.0 1.0 0.00 0.07 0.00 46 1014.8
20190323004605 48 12 0.0 0.0 0.00 0.08 0.00 45 1014.6
20190323003057 48 30 0.0 0.0 0.00 0.08 0.00 43 1014.4
20190323001553 49 318 0.0 1.0 0.00 0.08 0.00 42 1014.2
20190323000029 50 203 0.0 0.0 0.00 0.08 0.00 40 1014.0
20190322234536 51 331 0.0 2.0 0.00 0.12 0.00 39 1013.7
20190322233100 51 344 0.0 1.0 0.00 0.12 0.00 39 1013.5
20190322231630 52 360 0.0 8.0 0.00 0.12 0.00 37 1013.1
20190322230028 52 301 0.0 1.0 0.00 0.12 0.00 38 1012.9
20190322224530 52 173 0.0 1.0 0.00 0.12 0.00 39 1012.6
20190322223045 53 337 0.0 1.0 0.00 0.12 0.00 41 1012.5
20190322221533 53 320 0.0 1.0 0.00 0.12 0.00 41 1012.5
20190322220022 53 333 0.0 12.0 0.00 0.12 0.00 41 1012.2
20190322214544 53 288 0.0 0.0 0.00 0.12 0.00 41 1012.3
20190322213027 53 259 0.0 2.0 0.00 0.12 0.00 40 1012.3
20190322211557 55 360 0.0 2.0 0.00 0.12 0.00 39 1012.2
20190322210038 55 340 0.0 2.0 0.00 0.12 0.00 40 1012.5
20190322204521 55 232 0.0 1.0 0.00 0.14 0.00 41 1012.5
20190322203057 55 310 0.0 5.0 0.00 0.14 0.00 37 1012.7
20190322201514 55 78 0.0 7.0 0.00 0.14 0.00 40 1012.8
20190322200022 56 311 0.0 8.0 0.00 0.14 0.00 35 1012.9
20190322194537 57 102 0.0 3.0 0.00 0.14 0.00 38 1012.7
20190322193006 56 313 0.0 2.0 0.00 0.14 0.00 38 1012.9
20190322191507 55 206 0.0 11.0 0.00 0.14 0.00 38 1012.8
20190322190006 56 80 3.0 10.0 0.00 0.14 0.00 37 1013.0
20190322184805 56 95 0.0 9.0 0.00 0.14 0.00 40 1013.3
20190322183159 55 273 1.0 13.0 0.00 0.14 0.00 42 1013.3
20190322181733 55 346 2.0 11.0 0.00 0.14 0.00 43 1013.3
20190322180225 54 103 1.0 9.0 0.00 0.14 0.00 44 1013.8
20190322174701 53 57 1.0 8.0 0.00 0.14 0.00 44 1013.8
20190322173219 53 126 1.0 10.0 0.00 0.14 0.00 45 1013.8
20190322171635 51 232 0.0 11.0 0.00 0.14 0.00 53 1014.4
20190322170109 50 316 2.0 8.0 0.00 0.14 0.00 53 1014.5
20190322164615 48 355 1.0 12.0 0.00 0.14 0.00 56 1014.8
20190322163103 46 335 2.0 12.0 0.00 0.14 0.00 62 1015.0
20190322161604 46 237 1.0 11.0 0.00 0.14 0.00 60 1015.0
20190322160123 45 336 3.0 11.0 0.00 0.14 0.00 58 1015.1
20190322154539 45 187 1.0 9.0 0.00 0.14 0.00 64 1015.4
20190322151621 43 74 3.0 11.0 0.00 0.14 0.00 65 1015.4
20190322144535 42 233 2.0 14.0 0.00 0.14 0.00 67 1015.5
20190322141607 41 313 2.0 12.0 0.00 0.14 0.00 67 1015.5
20190322134536 39 330 2.0 14.0 0.00 0.14 0.00 73 1015.3
20190322131553 39 331 4.0 13.0 0.00 0.14 0.00 77 1015.2
20190322124549 36 304 5.0 12.0 0.00 0.14 0.00 82 1015.3
20190322121547 34 284 1.0 10.0 0.00 0.14 0.00 84 1015.2
20190322114631 34 77 3.0 11.0 0.00 0.14 0.00 85 1015.0
20190322111622 34 197 3.0 12.0 0.00 0.14 0.00 86 1014.4
20190322104601 34 304 3.0 13.0 0.00 0.14 0.00 86 1014.0
20190322101541 34 344 2.0 9.0 0.00 0.14 0.00 88 1013.7
20190322094549 34 343 1.0 9.0 0.00 0.14 0.00 89 1013.6
20190322091547 34 289 2.0 11.0 0.00 0.14 0.00 89 1013.4
20190322084535 34 328 1.0 8.0 0.00 0.14 0.00 88 1013.2
20190322081547 34 351 0.0 8.0 0.00 0.14 0.00 89 1013.2
20190322074604 34 105 1.0 9.0 0.00 0.14 0.00 89 1013.4
20190322071527 34 332 0.0 5.0 0.00 0.14 0.00 90 1013.4
20190322064543 34 325 0.0 6.0 0.00 0.14 0.00 90 1013.5
20190322061638 34 355 0.0 4.0 0.00 0.14 0.00 92 1013.3
20190322054523 33 336 0.0 3.0 0.00 0.14 0.00 92 1013.3
20190322051615 34 327 0.0 4.0 0.00 0.14 0.00 91 1013.3
20190322044619 35 338 0.0 4.0 0.00 0.14 0.00 94 1013.3